sensor_id;sensor_type;location;lat;lon;timestamp;temperature;humidity
17170;DHT22;8700;48.222;16.342;2022-10-31T00:03:04;13.70;99.90
17170;DHT22;8700;48.222;16.342;2022-10-31T00:06:25;13.70;99.90
17170;DHT22;8700;48.222;16.342;2022-10-31T00:09:47;13.80;99.90
17170;DHT22;8700;48.222;16.342;2022-10-31T00:13:09;13.80;99.90
17170;DHT22;8700;48.222;16.342;2022-10-31T00:16:32;13.70;99.90
17170;DHT22;8700;48.222;16.342;2022-10-31T00:19:53;13.70;99.90
17170;DHT22;8700;48.222;16.342;2022-10-31T00:23:14;13.80;99.90
17170;DHT22;8700;48.222;16.342;2022-10-31T00:26:36;13.70;99.90
17170;DHT22;8700;48.222;16.342;2022-10-31T00:29:57;13.70;99.90
17170;DHT22;8700;48.222;16.342;2022-10-31T00:33:20;13.80;99.90
17170;DHT22;8700;48.222;16.342;2022-10-31T00:36:41;13.90;99.90
17170;DHT22;8700;48.222;16.342;2022-10-31T00:40:04;13.90;99.90
17170;DHT22;8700;48.222;16.342;2022-10-31T00:43:25;13.80;99.90
17170;DHT22;8700;48.222;16.342;2022-10-31T00:46:46;13.80;99.90
17170;DHT22;8700;48.222;16.342;2022-10-31T00:50:09;13.70;99.90
17170;DHT22;8700;48.222;16.342;2022-10-31T00:53:31;13.80;99.90
17170;DHT22;8700;48.222;16.342;2022-10-31T00:56:52;13.70;99.90
17170;DHT22;8700;48.222;16.342;2022-10-31T01:00:14;13.70;99.90
17170;DHT22;8700;48.222;16.342;2022-10-31T01:03:36;13.70;99.90
17170;DHT22;8700;48.222;16.342;2022-10-31T01:06:59;13.70;99.90
17170;DHT22;8700;48.222;16.342;2022-10-31T01:10:21;13.80;99.90
17170;DHT22;8700;48.222;16.342;2022-10-31T01:13:43;13.80;99.90
17170;DHT22;8700;48.222;16.342;2022-10-31T01:17:05;13.70;99.90
17170;DHT22;8700;48.222;16.342;2022-10-31T01:20:26;13.60;99.90
17170;DHT22;8700;48.222;16.342;2022-10-31T01:23:49;13.50;99.90
17170;DHT22;8700;48.222;16.342;2022-10-31T01:27:10;13.40;99.90
17170;DHT22;8700;48.222;16.342;2022-10-31T01:30:32;13.40;99.90
17170;DHT22;8700;48.222;16.342;2022-10-31T01:33:53;13.50;99.90
17170;DHT22;8700;48.222;16.342;2022-10-31T01:37:15;13.60;99.90
17170;DHT22;8700;48.222;16.342;2022-10-31T01:40:38;13.70;99.90
17170;DHT22;8700;48.222;16.342;2022-10-31T01:44:43;13.80;99.90
17170;DHT22;8700;48.222;16.342;2022-10-31T01:47:46;13.80;99.90
17170;DHT22;8700;48.222;16.342;2022-10-31T01:51:11;13.70;99.90
17170;DHT22;8700;48.222;16.342;2022-10-31T01:54:35;13.70;99.90
17170;DHT22;8700;48.222;16.342;2022-10-31T01:58:04;13.60;99.90
17170;DHT22;8700;48.222;16.342;2022-10-31T02:01:27;13.60;99.90
17170;DHT22;8700;48.222;16.342;2022-10-31T02:04:50;13.60;99.90
17170;DHT22;8700;48.222;16.342;2022-10-31T02:08:16;13.50;99.90
17170;DHT22;8700;48.222;16.342;2022-10-31T02:11:39;13.40;99.90
17170;DHT22;8700;48.222;16.342;2022-10-31T02:15:04;13.50;99.90
17170;DHT22;8700;48.222;16.342;2022-10-31T02:18:28;13.30;99.90
17170;DHT22;8700;48.222;16.342;2022-10-31T02:21:55;13.20;99.90
17170;DHT22;8700;48.222;16.342;2022-10-31T02:25:31;13.20;99.90
17170;DHT22;8700;48.222;16.342;2022-10-31T02:33:20;13.30;99.90
17170;DHT22;8700;48.222;16.342;2022-10-31T02:36:48;13.30;99.90
17170;DHT22;8700;48.222;16.342;2022-10-31T02:40:17;13.20;99.90
17170;DHT22;8700;48.222;16.342;2022-10-31T02:43:48;13.40;99.90
17170;DHT22;8700;48.222;16.342;2022-10-31T02:47:14;13.60;99.90
17170;DHT22;8700;48.222;16.342;2022-10-31T02:50:41;13.70;99.90
17170;DHT22;8700;48.222;16.342;2022-10-31T02:54:03;13.60;99.90
17170;DHT22;8700;48.222;16.342;2022-10-31T02:57:26;13.20;99.90
17170;DHT22;8700;48.222;16.342;2022-10-31T03:04:54;13.30;99.90
17170;DHT22;8700;48.222;16.342;2022-10-31T03:08:23;13.40;99.90
17170;DHT22;8700;48.222;16.342;2022-10-31T03:11:54;13.50;99.90
17170;DHT22;8700;48.222;16.342;2022-10-31T03:15:21;13.40;99.90
17170;DHT22;8700;48.222;16.342;2022-10-31T03:18:49;13.10;99.90
17170;DHT22;8700;48.222;16.342;2022-10-31T03:22:16;13.20;99.90
17170;DHT22;8700;48.222;16.342;2022-10-31T03:25:42;13.30;99.90
17170;DHT22;8700;48.222;16.342;2022-10-31T03:29:06;13.30;99.90
17170;DHT22;8700;48.222;16.342;2022-10-31T03:32:32;13.30;99.90
17170;DHT22;8700;48.222;16.342;2022-10-31T03:35:55;13.40;99.90
17170;DHT22;8700;48.222;16.342;2022-10-31T03:39:22;13.30;99.90
17170;DHT22;8700;48.222;16.342;2022-10-31T03:42:51;13.40;99.90
17170;DHT22;8700;48.222;16.342;2022-10-31T03:46:14;13.40;99.90
17170;DHT22;8700;48.222;16.342;2022-10-31T03:49:36;13.40;99.90
17170;DHT22;8700;48.222;16.342;2022-10-31T03:53:01;13.40;99.90
17170;DHT22;8700;48.222;16.342;2022-10-31T03:56:30;13.50;99.90
17170;DHT22;8700;48.222;16.342;2022-10-31T03:59:57;13.50;99.90
17170;DHT22;8700;48.222;16.342;2022-10-31T04:03:23;13.40;99.90
17170;DHT22;8700;48.222;16.342;2022-10-31T04:06:47;13.30;99.90
17170;DHT22;8700;48.222;16.342;2022-10-31T04:10:12;13.00;99.90
17170;DHT22;8700;48.222;16.342;2022-10-31T04:13:36;12.90;99.90
17170;DHT22;8700;48.222;16.342;2022-10-31T04:17:02;12.90;99.90
17170;DHT22;8700;48.222;16.342;2022-10-31T04:20:32;12.90;99.90
17170;DHT22;8700;48.222;16.342;2022-10-31T04:23:54;13.00;99.90
17170;DHT22;8700;48.222;16.342;2022-10-31T04:27:15;13.00;99.90
17170;DHT22;8700;48.222;16.342;2022-10-31T04:30:42;13.00;99.90
17170;DHT22;8700;48.222;16.342;2022-10-31T04:34:04;13.20;99.90
17170;DHT22;8700;48.222;16.342;2022-10-31T04:37:27;13.00;99.90
17170;DHT22;8700;48.222;16.342;2022-10-31T04:40:48;13.00;99.90
17170;DHT22;8700;48.222;16.342;2022-10-31T04:44:10;12.90;99.90
17170;DHT22;8700;48.222;16.342;2022-10-31T04:47:31;13.00;99.90
17170;DHT22;8700;48.222;16.342;2022-10-31T04:50:58;13.00;99.90
17170;DHT22;8700;48.222;16.342;2022-10-31T04:54:19;13.10;99.90
17170;DHT22;8700;48.222;16.342;2022-10-31T04:57:41;13.30;99.90
17170;DHT22;8700;48.222;16.342;2022-10-31T05:01:02;13.30;99.90
17170;DHT22;8700;48.222;16.342;2022-10-31T05:04:24;13.30;99.90
17170;DHT22;8700;48.222;16.342;2022-10-31T05:07:47;13.30;99.90
17170;DHT22;8700;48.222;16.342;2022-10-31T05:11:09;13.30;99.90
17170;DHT22;8700;48.222;16.342;2022-10-31T05:14:30;13.20;99.90
17170;DHT22;8700;48.222;16.342;2022-10-31T05:17:53;13.30;99.90
17170;DHT22;8700;48.222;16.342;2022-10-31T05:21:14;13.30;99.90
17170;DHT22;8700;48.222;16.342;2022-10-31T05:24:37;13.30;99.90
17170;DHT22;8700;48.222;16.342;2022-10-31T05:27:58;13.40;99.90
17170;DHT22;8700;48.222;16.342;2022-10-31T05:31:19;13.50;99.90
17170;DHT22;8700;48.222;16.342;2022-10-31T05:34:41;13.40;99.90
17170;DHT22;8700;48.222;16.342;2022-10-31T05:38:02;13.50;99.90
17170;DHT22;8700;48.222;16.342;2022-10-31T05:41:25;13.50;99.90
17170;DHT22;8700;48.222;16.342;2022-10-31T05:44:46;13.60;99.90
17170;DHT22;8700;48.222;16.342;2022-10-31T05:48:08;13.50;99.90
17170;DHT22;8700;48.222;16.342;2022-10-31T05:51:30;13.50;99.90
17170;DHT22;8700;48.222;16.342;2022-10-31T05:54:51;13.50;99.90
17170;DHT22;8700;48.222;16.342;2022-10-31T05:58:14;13.60;99.90
17170;DHT22;8700;48.222;16.342;2022-10-31T06:01:36;13.60;99.90
17170;DHT22;8700;48.222;16.342;2022-10-31T06:04:57;13.50;99.90
17170;DHT22;8700;48.222;16.342;2022-10-31T06:08:18;13.40;99.90
17170;DHT22;8700;48.222;16.342;2022-10-31T06:11:41;13.40;99.90
17170;DHT22;8700;48.222;16.342;2022-10-31T06:15:05;13.40;99.90
17170;DHT22;8700;48.222;16.342;2022-10-31T06:18:26;13.30;99.90
17170;DHT22;8700;48.222;16.342;2022-10-31T06:21:47;13.30;99.90
17170;DHT22;8700;48.222;16.342;2022-10-31T06:25:09;13.40;99.90
17170;DHT22;8700;48.222;16.342;2022-10-31T06:28:30;13.60;99.90
17170;DHT22;8700;48.222;16.342;2022-10-31T06:31:53;13.50;99.90
17170;DHT22;8700;48.222;16.342;2022-10-31T06:35:15;13.60;99.90
17170;DHT22;8700;48.222;16.342;2022-10-31T06:38:36;13.50;99.90
17170;DHT22;8700;48.222;16.342;2022-10-31T06:41:58;13.60;99.90
17170;DHT22;8700;48.222;16.342;2022-10-31T06:45:19;13.50;99.90
17170;DHT22;8700;48.222;16.342;2022-10-31T06:48:42;13.50;99.90
17170;DHT22;8700;48.222;16.342;2022-10-31T06:52:05;13.60;99.90
17170;DHT22;8700;48.222;16.342;2022-10-31T06:55:27;13.60;99.90
17170;DHT22;8700;48.222;16.342;2022-10-31T06:58:48;13.70;99.90
17170;DHT22;8700;48.222;16.342;2022-10-31T07:02:10;13.80;99.90
17170;DHT22;8700;48.222;16.342;2022-10-31T07:05:33;13.90;99.90
17170;DHT22;8700;48.222;16.342;2022-10-31T07:08:55;13.90;99.90
17170;DHT22;8700;48.222;16.342;2022-10-31T07:12:16;13.90;99.90
17170;DHT22;8700;48.222;16.342;2022-10-31T07:15:41;13.90;99.90
17170;DHT22;8700;48.222;16.342;2022-10-31T07:19:02;13.80;99.90
17170;DHT22;8700;48.222;16.342;2022-10-31T07:22:32;13.80;99.90
17170;DHT22;8700;48.222;16.342;2022-10-31T07:25:55;13.70;99.90
17170;DHT22;8700;48.222;16.342;2022-10-31T07:29:16;13.60;99.90
17170;DHT22;8700;48.222;16.342;2022-10-31T07:32:38;13.70;99.90
17170;DHT22;8700;48.222;16.342;2022-10-31T07:36:00;13.80;99.90
17170;DHT22;8700;48.222;16.342;2022-10-31T07:39:22;13.80;99.90
17170;DHT22;8700;48.222;16.342;2022-10-31T07:42:45;13.90;99.90
17170;DHT22;8700;48.222;16.342;2022-10-31T07:46:08;13.90;99.90
17170;DHT22;8700;48.222;16.342;2022-10-31T07:49:31;14.00;99.90
17170;DHT22;8700;48.222;16.342;2022-10-31T07:53:01;14.10;99.90
17170;DHT22;8700;48.222;16.342;2022-10-31T07:56:24;14.10;99.90
17170;DHT22;8700;48.222;16.342;2022-10-31T07:59:46;13.90;99.90
17170;DHT22;8700;48.222;16.342;2022-10-31T08:03:08;13.90;99.90
17170;DHT22;8700;48.222;16.342;2022-10-31T08:06:30;13.90;99.90
17170;DHT22;8700;48.222;16.342;2022-10-31T08:09:51;13.90;99.90
17170;DHT22;8700;48.222;16.342;2022-10-31T08:13:14;13.80;99.90
17170;DHT22;8700;48.222;16.342;2022-10-31T08:16:35;13.80;99.90
17170;DHT22;8700;48.222;16.342;2022-10-31T08:19:57;14.00;99.90
17170;DHT22;8700;48.222;16.342;2022-10-31T08:23:18;13.90;99.90
17170;DHT22;8700;48.222;16.342;2022-10-31T08:26:40;14.00;99.90
17170;DHT22;8700;48.222;16.342;2022-10-31T08:30:03;14.00;99.90
17170;DHT22;8700;48.222;16.342;2022-10-31T08:33:25;14.00;99.90
17170;DHT22;8700;48.222;16.342;2022-10-31T08:36:46;14.10;99.90
17170;DHT22;8700;48.222;16.342;2022-10-31T08:40:10;14.10;99.90
17170;DHT22;8700;48.222;16.342;2022-10-31T08:43:32;14.10;99.90
17170;DHT22;8700;48.222;16.342;2022-10-31T08:46:55;14.10;99.90
17170;DHT22;8700;48.222;16.342;2022-10-31T08:50:17;14.30;99.90
17170;DHT22;8700;48.222;16.342;2022-10-31T08:53:39;14.30;99.90
17170;DHT22;8700;48.222;16.342;2022-10-31T08:57:01;14.30;99.90
17170;DHT22;8700;48.222;16.342;2022-10-31T09:00:22;14.40;99.90
17170;DHT22;8700;48.222;16.342;2022-10-31T09:03:45;14.50;99.90
17170;DHT22;8700;48.222;16.342;2022-10-31T09:07:08;14.50;99.90
17170;DHT22;8700;48.222;16.342;2022-10-31T09:10:30;14.50;99.90
17170;DHT22;8700;48.222;16.342;2022-10-31T09:13:55;14.40;99.90
17170;DHT22;8700;48.222;16.342;2022-10-31T09:17:16;14.50;99.90
17170;DHT22;8700;48.222;16.342;2022-10-31T09:20:41;14.50;99.90
17170;DHT22;8700;48.222;16.342;2022-10-31T09:24:03;14.50;99.90
17170;DHT22;8700;48.222;16.342;2022-10-31T09:27:25;14.60;99.90
17170;DHT22;8700;48.222;16.342;2022-10-31T09:30:47;14.60;99.90
17170;DHT22;8700;48.222;16.342;2022-10-31T09:34:09;14.50;99.90
17170;DHT22;8700;48.222;16.342;2022-10-31T09:37:31;14.50;99.90
17170;DHT22;8700;48.222;16.342;2022-10-31T09:40:57;14.40;99.90
17170;DHT22;8700;48.222;16.342;2022-10-31T09:44:28;14.40;99.90
17170;DHT22;8700;48.222;16.342;2022-10-31T09:48:08;14.40;99.90
17170;DHT22;8700;48.222;16.342;2022-10-31T09:51:33;14.40;99.90
17170;DHT22;8700;48.222;16.342;2022-10-31T09:55:02;14.40;99.90
17170;DHT22;8700;48.222;16.342;2022-10-31T09:58:27;14.40;99.90
17170;DHT22;8700;48.222;16.342;2022-10-31T10:01:51;14.40;99.90
17170;DHT22;8700;48.222;16.342;2022-10-31T10:05:18;14.50;99.90
17170;DHT22;8700;48.222;16.342;2022-10-31T10:08:41;14.50;99.90
17170;DHT22;8700;48.222;16.342;2022-10-31T10:12:10;14.50;99.90
17170;DHT22;8700;48.222;16.342;2022-10-31T10:15:47;14.60;99.90
17170;DHT22;8700;48.222;16.342;2022-10-31T10:19:22;14.70;99.90
17170;DHT22;8700;48.222;16.342;2022-10-31T10:22:49;14.70;99.90
17170;DHT22;8700;48.222;16.342;2022-10-31T10:26:17;14.70;99.90
17170;DHT22;8700;48.222;16.342;2022-10-31T10:29:52;14.60;99.90
17170;DHT22;8700;48.222;16.342;2022-10-31T10:33:16;14.70;99.90
17170;DHT22;8700;48.222;16.342;2022-10-31T10:36:42;14.60;99.90
17170;DHT22;8700;48.222;16.342;2022-10-31T10:40:11;14.70;99.90
17170;DHT22;8700;48.222;16.342;2022-10-31T10:43:36;14.70;99.90
17170;DHT22;8700;48.222;16.342;2022-10-31T10:46:59;14.70;99.90
17170;DHT22;8700;48.222;16.342;2022-10-31T10:50:41;14.70;99.90
17170;DHT22;8700;48.222;16.342;2022-10-31T10:54:20;14.70;99.90
17170;DHT22;8700;48.222;16.342;2022-10-31T10:57:53;14.70;99.90
17170;DHT22;8700;48.222;16.342;2022-10-31T11:01:15;14.70;99.90
17170;DHT22;8700;48.222;16.342;2022-10-31T11:04:40;14.60;99.90
17170;DHT22;8700;48.222;16.342;2022-10-31T11:08:02;14.70;99.90
17170;DHT22;8700;48.222;16.342;2022-10-31T11:11:26;14.70;99.90
17170;DHT22;8700;48.222;16.342;2022-10-31T11:14:51;14.80;99.90
17170;DHT22;8700;48.222;16.342;2022-10-31T11:18:23;14.80;99.90
17170;DHT22;8700;48.222;16.342;2022-10-31T11:21:47;14.80;99.90
17170;DHT22;8700;48.222;16.342;2022-10-31T11:25:20;14.80;99.90
17170;DHT22;8700;48.222;16.342;2022-10-31T11:28:42;14.90;99.90
17170;DHT22;8700;48.222;16.342;2022-10-31T11:32:04;14.90;99.90
17170;DHT22;8700;48.222;16.342;2022-10-31T11:35:25;14.90;99.90
17170;DHT22;8700;48.222;16.342;2022-10-31T11:38:48;14.80;99.90
17170;DHT22;8700;48.222;16.342;2022-10-31T11:42:12;14.60;99.90
17170;DHT22;8700;48.222;16.342;2022-10-31T11:45:34;14.60;99.90
17170;DHT22;8700;48.222;16.342;2022-10-31T11:48:56;14.80;99.90
17170;DHT22;8700;48.222;16.342;2022-10-31T11:52:20;15.00;99.90
17170;DHT22;8700;48.222;16.342;2022-10-31T11:55:45;15.10;99.90
17170;DHT22;8700;48.222;16.342;2022-10-31T11:59:17;15.00;99.90
17170;DHT22;8700;48.222;16.342;2022-10-31T12:02:39;14.90;99.90
17170;DHT22;8700;48.222;16.342;2022-10-31T12:06:04;14.80;99.90
17170;DHT22;8700;48.222;16.342;2022-10-31T12:09:29;14.80;99.90
17170;DHT22;8700;48.222;16.342;2022-10-31T12:13:04;14.90;99.90
17170;DHT22;8700;48.222;16.342;2022-10-31T12:16:32;14.90;99.90
17170;DHT22;8700;48.222;16.342;2022-10-31T12:20:03;14.90;99.90
17170;DHT22;8700;48.222;16.342;2022-10-31T12:23:35;14.80;99.90
17170;DHT22;8700;48.222;16.342;2022-10-31T12:27:10;14.70;99.90
17170;DHT22;8700;48.222;16.342;2022-10-31T12:30:46;14.60;99.90
17170;DHT22;8700;48.222;16.342;2022-10-31T12:34:45;14.70;99.90
17170;DHT22;8700;48.222;16.342;2022-10-31T12:38:19;14.80;99.90
17170;DHT22;8700;48.222;16.342;2022-10-31T12:41:47;14.70;99.90
17170;DHT22;8700;48.222;16.342;2022-10-31T12:45:24;14.70;99.90
17170;DHT22;8700;48.222;16.342;2022-10-31T12:49:07;14.70;99.90
17170;DHT22;8700;48.222;16.342;2022-10-31T12:52:44;14.70;99.90
17170;DHT22;8700;48.222;16.342;2022-10-31T12:56:24;14.70;99.90
17170;DHT22;8700;48.222;16.342;2022-10-31T12:59:56;14.70;99.90
17170;DHT22;8700;48.222;16.342;2022-10-31T13:03:30;14.80;99.90
17170;DHT22;8700;48.222;16.342;2022-10-31T13:06:59;14.90;99.90
17170;DHT22;8700;48.222;16.342;2022-10-31T13:10:25;14.90;99.90
17170;DHT22;8700;48.222;16.342;2022-10-31T13:13:55;15.00;99.90
17170;DHT22;8700;48.222;16.342;2022-10-31T13:17:24;15.00;99.90
17170;DHT22;8700;48.222;16.342;2022-10-31T13:20:49;15.00;99.90
17170;DHT22;8700;48.222;16.342;2022-10-31T13:24:16;14.60;99.90
17170;DHT22;8700;48.222;16.342;2022-10-31T13:27:48;14.60;99.90
17170;DHT22;8700;48.222;16.342;2022-10-31T13:31:11;14.50;99.90
17170;DHT22;8700;48.222;16.342;2022-10-31T13:34:35;14.50;99.90
17170;DHT22;8700;48.222;16.342;2022-10-31T13:38:09;14.30;99.90
17170;DHT22;8700;48.222;16.342;2022-10-31T13:41:40;14.60;99.90
17170;DHT22;8700;48.222;16.342;2022-10-31T13:45:12;14.60;99.90
17170;DHT22;8700;48.222;16.342;2022-10-31T13:48:38;14.70;99.90
17170;DHT22;8700;48.222;16.342;2022-10-31T13:52:22;14.60;99.90
17170;DHT22;8700;48.222;16.342;2022-10-31T13:55:45;14.60;99.90
17170;DHT22;8700;48.222;16.342;2022-10-31T13:59:23;14.60;99.90
17170;DHT22;8700;48.222;16.342;2022-10-31T14:02:47;14.60;99.90
17170;DHT22;8700;48.222;16.342;2022-10-31T14:06:10;14.50;99.90
17170;DHT22;8700;48.222;16.342;2022-10-31T14:09:34;14.50;99.90
17170;DHT22;8700;48.222;16.342;2022-10-31T14:13:04;14.40;99.90
17170;DHT22;8700;48.222;16.342;2022-10-31T14:16:29;14.20;99.90
17170;DHT22;8700;48.222;16.342;2022-10-31T14:23:40;14.00;99.90
17170;DHT22;8700;48.222;16.342;2022-10-31T14:27:30;14.00;99.90
17170;DHT22;8700;48.222;16.342;2022-10-31T14:30:53;14.10;99.90
17170;DHT22;8700;48.222;16.342;2022-10-31T14:34:24;13.90;99.90
17170;DHT22;8700;48.222;16.342;2022-10-31T14:38:09;14.00;99.90
17170;DHT22;8700;48.222;16.342;2022-10-31T14:41:53;14.00;99.90
17170;DHT22;8700;48.222;16.342;2022-10-31T14:45:32;13.90;99.90
17170;DHT22;8700;48.222;16.342;2022-10-31T14:49:16;13.80;99.90
17170;DHT22;8700;48.222;16.342;2022-10-31T14:52:45;13.70;99.90
17170;DHT22;8700;48.222;16.342;2022-10-31T14:56:10;13.50;99.90
17170;DHT22;8700;48.222;16.342;2022-10-31T14:59:35;13.70;99.90
17170;DHT22;8700;48.222;16.342;2022-10-31T15:03:06;14.00;99.90
17170;DHT22;8700;48.222;16.342;2022-10-31T15:06:35;14.00;99.90
17170;DHT22;8700;48.222;16.342;2022-10-31T15:10:02;13.90;99.90
17170;DHT22;8700;48.222;16.342;2022-10-31T15:13:23;13.60;99.90
17170;DHT22;8700;48.222;16.342;2022-10-31T15:16:45;13.70;99.90
17170;DHT22;8700;48.222;16.342;2022-10-31T15:20:10;13.90;99.90
17170;DHT22;8700;48.222;16.342;2022-10-31T15:23:33;14.10;99.90
17170;DHT22;8700;48.222;16.342;2022-10-31T15:26:55;14.00;99.90
17170;DHT22;8700;48.222;16.342;2022-10-31T15:30:20;13.80;99.90
17170;DHT22;8700;48.222;16.342;2022-10-31T15:33:42;13.70;99.90
17170;DHT22;8700;48.222;16.342;2022-10-31T15:37:11;13.60;99.90
17170;DHT22;8700;48.222;16.342;2022-10-31T15:40:35;13.70;99.90
17170;DHT22;8700;48.222;16.342;2022-10-31T15:44:01;13.80;99.90
17170;DHT22;8700;48.222;16.342;2022-10-31T15:47:24;13.80;99.90
17170;DHT22;8700;48.222;16.342;2022-10-31T15:50:48;13.80;99.90
17170;DHT22;8700;48.222;16.342;2022-10-31T15:54:13;13.70;99.90
17170;DHT22;8700;48.222;16.342;2022-10-31T15:57:42;13.70;99.90
17170;DHT22;8700;48.222;16.342;2022-10-31T16:01:05;13.80;99.90
17170;DHT22;8700;48.222;16.342;2022-10-31T16:04:27;13.70;99.90
17170;DHT22;8700;48.222;16.342;2022-10-31T16:07:49;13.70;99.90
17170;DHT22;8700;48.222;16.342;2022-10-31T16:11:23;13.60;99.90
17170;DHT22;8700;48.222;16.342;2022-10-31T16:14:47;13.60;99.90
17170;DHT22;8700;48.222;16.342;2022-10-31T16:18:11;13.70;99.90
17170;DHT22;8700;48.222;16.342;2022-10-31T16:21:35;13.80;99.90
17170;DHT22;8700;48.222;16.342;2022-10-31T16:25:02;13.70;99.90
17170;DHT22;8700;48.222;16.342;2022-10-31T16:28:27;13.50;99.90
17170;DHT22;8700;48.222;16.342;2022-10-31T16:31:50;13.60;99.90
17170;DHT22;8700;48.222;16.342;2022-10-31T16:35:23;13.50;99.90
17170;DHT22;8700;48.222;16.342;2022-10-31T16:38:45;13.60;99.90
17170;DHT22;8700;48.222;16.342;2022-10-31T16:42:08;13.50;99.90
17170;DHT22;8700;48.222;16.342;2022-10-31T16:45:32;13.10;99.90
17170;DHT22;8700;48.222;16.342;2022-10-31T16:48:55;13.10;99.90
17170;DHT22;8700;48.222;16.342;2022-10-31T16:52:17;13.20;99.90
17170;DHT22;8700;48.222;16.342;2022-10-31T16:55:42;13.40;99.90
17170;DHT22;8700;48.222;16.342;2022-10-31T16:59:09;13.40;99.90
17170;DHT22;8700;48.222;16.342;2022-10-31T17:02:32;13.20;99.90
17170;DHT22;8700;48.222;16.342;2022-10-31T17:05:56;13.30;99.90
17170;DHT22;8700;48.222;16.342;2022-10-31T17:09:17;13.20;99.90
17170;DHT22;8700;48.222;16.342;2022-10-31T17:12:41;13.10;99.90
17170;DHT22;8700;48.222;16.342;2022-10-31T17:16:03;13.30;99.90
17170;DHT22;8700;48.222;16.342;2022-10-31T17:19:25;13.00;99.90
17170;DHT22;8700;48.222;16.342;2022-10-31T17:22:48;12.90;99.90
17170;DHT22;8700;48.222;16.342;2022-10-31T17:26:13;13.00;99.90
17170;DHT22;8700;48.222;16.342;2022-10-31T17:29:34;13.10;99.90
17170;DHT22;8700;48.222;16.342;2022-10-31T17:32:55;12.90;99.90
17170;DHT22;8700;48.222;16.342;2022-10-31T17:36:17;12.80;99.90
17170;DHT22;8700;48.222;16.342;2022-10-31T17:39:40;12.80;99.90
17170;DHT22;8700;48.222;16.342;2022-10-31T17:43:01;12.90;99.90
17170;DHT22;8700;48.222;16.342;2022-10-31T17:46:23;12.80;99.90
17170;DHT22;8700;48.222;16.342;2022-10-31T17:49:44;12.80;99.90
17170;DHT22;8700;48.222;16.342;2022-10-31T17:53:06;13.00;99.90
17170;DHT22;8700;48.222;16.342;2022-10-31T17:56:28;13.00;99.90
17170;DHT22;8700;48.222;16.342;2022-10-31T17:59:50;12.80;99.90
17170;DHT22;8700;48.222;16.342;2022-10-31T18:03:11;12.90;99.90
17170;DHT22;8700;48.222;16.342;2022-10-31T18:06:33;13.10;99.90
17170;DHT22;8700;48.222;16.342;2022-10-31T18:09:54;13.10;99.90
17170;DHT22;8700;48.222;16.342;2022-10-31T18:13:17;13.00;99.90
17170;DHT22;8700;48.222;16.342;2022-10-31T18:16:39;12.80;99.90
17170;DHT22;8700;48.222;16.342;2022-10-31T18:20:00;12.80;99.90
17170;DHT22;8700;48.222;16.342;2022-10-31T18:23:22;12.90;99.90
17170;DHT22;8700;48.222;16.342;2022-10-31T18:26:43;12.60;99.90
17170;DHT22;8700;48.222;16.342;2022-10-31T18:30:07;12.60;99.90
17170;DHT22;8700;48.222;16.342;2022-10-31T18:33:29;12.70;99.90
17170;DHT22;8700;48.222;16.342;2022-10-31T18:36:51;12.70;99.90
17170;DHT22;8700;48.222;16.342;2022-10-31T18:40:12;12.60;99.90
17170;DHT22;8700;48.222;16.342;2022-10-31T18:43:34;12.50;99.90
17170;DHT22;8700;48.222;16.342;2022-10-31T18:46:59;12.50;99.90
17170;DHT22;8700;48.222;16.342;2022-10-31T18:50:21;12.40;99.90
17170;DHT22;8700;48.222;16.342;2022-10-31T18:53:43;12.50;99.90
17170;DHT22;8700;48.222;16.342;2022-10-31T18:57:09;12.50;99.90
17170;DHT22;8700;48.222;16.342;2022-10-31T19:00:30;12.60;99.90
17170;DHT22;8700;48.222;16.342;2022-10-31T19:03:54;12.80;99.90
17170;DHT22;8700;48.222;16.342;2022-10-31T19:07:16;12.90;99.90
17170;DHT22;8700;48.222;16.342;2022-10-31T19:10:38;12.70;99.90
17170;DHT22;8700;48.222;16.342;2022-10-31T19:14:00;12.60;99.90
17170;DHT22;8700;48.222;16.342;2022-10-31T19:17:23;12.70;99.90
17170;DHT22;8700;48.222;16.342;2022-10-31T19:20:46;12.60;99.90
17170;DHT22;8700;48.222;16.342;2022-10-31T19:24:08;12.80;99.90
17170;DHT22;8700;48.222;16.342;2022-10-31T19:27:29;12.70;99.90
17170;DHT22;8700;48.222;16.342;2022-10-31T19:30:53;12.70;99.90
17170;DHT22;8700;48.222;16.342;2022-10-31T19:34:15;12.80;99.90
17170;DHT22;8700;48.222;16.342;2022-10-31T19:37:42;12.80;99.90
17170;DHT22;8700;48.222;16.342;2022-10-31T19:41:05;12.80;99.90
17170;DHT22;8700;48.222;16.342;2022-10-31T19:44:27;12.80;99.90
17170;DHT22;8700;48.222;16.342;2022-10-31T19:47:49;12.70;99.90
17170;DHT22;8700;48.222;16.342;2022-10-31T19:51:12;12.50;99.90
17170;DHT22;8700;48.222;16.342;2022-10-31T19:54:35;12.50;99.90
17170;DHT22;8700;48.222;16.342;2022-10-31T19:57:57;12.70;99.90
17170;DHT22;8700;48.222;16.342;2022-10-31T20:01:20;12.50;99.90
17170;DHT22;8700;48.222;16.342;2022-10-31T20:04:41;12.70;99.90
17170;DHT22;8700;48.222;16.342;2022-10-31T20:08:03;12.60;99.90
17170;DHT22;8700;48.222;16.342;2022-10-31T20:11:26;12.70;99.90
17170;DHT22;8700;48.222;16.342;2022-10-31T20:14:48;12.70;99.90
17170;DHT22;8700;48.222;16.342;2022-10-31T20:18:11;12.60;99.90
17170;DHT22;8700;48.222;16.342;2022-10-31T20:21:36;12.50;99.90
17170;DHT22;8700;48.222;16.342;2022-10-31T20:24:57;12.50;99.90
17170;DHT22;8700;48.222;16.342;2022-10-31T20:28:20;12.40;99.90
17170;DHT22;8700;48.222;16.342;2022-10-31T20:31:43;12.50;99.90
17170;DHT22;8700;48.222;16.342;2022-10-31T20:35:05;12.40;99.90
17170;DHT22;8700;48.222;16.342;2022-10-31T20:38:27;12.30;99.90
17170;DHT22;8700;48.222;16.342;2022-10-31T20:41:48;12.30;99.90
17170;DHT22;8700;48.222;16.342;2022-10-31T20:45:11;12.40;99.90
17170;DHT22;8700;48.222;16.342;2022-10-31T20:48:33;12.20;99.90
17170;DHT22;8700;48.222;16.342;2022-10-31T20:51:54;12.40;99.90
17170;DHT22;8700;48.222;16.342;2022-10-31T20:55:19;12.40;99.90
17170;DHT22;8700;48.222;16.342;2022-10-31T20:58:41;12.50;99.90
17170;DHT22;8700;48.222;16.342;2022-10-31T21:02:05;12.70;99.90
17170;DHT22;8700;48.222;16.342;2022-10-31T21:05:27;12.70;99.90
17170;DHT22;8700;48.222;16.342;2022-10-31T21:08:49;12.40;99.90
17170;DHT22;8700;48.222;16.342;2022-10-31T21:12:10;12.60;99.90
17170;DHT22;8700;48.222;16.342;2022-10-31T21:15:33;12.50;99.90
17170;DHT22;8700;48.222;16.342;2022-10-31T21:18:57;12.20;99.90
17170;DHT22;8700;48.222;16.342;2022-10-31T21:22:19;12.10;99.90
17170;DHT22;8700;48.222;16.342;2022-10-31T21:25:41;12.10;99.90
17170;DHT22;8700;48.222;16.342;2022-10-31T21:29:04;12.10;99.90
17170;DHT22;8700;48.222;16.342;2022-10-31T21:32:26;12.30;99.90
17170;DHT22;8700;48.222;16.342;2022-10-31T21:35:50;12.20;99.90
17170;DHT22;8700;48.222;16.342;2022-10-31T21:39:13;12.40;99.90
17170;DHT22;8700;48.222;16.342;2022-10-31T21:42:34;12.50;99.90
17170;DHT22;8700;48.222;16.342;2022-10-31T21:46:02;12.40;99.90